Time;durP1;ratioP1;P1;durP2;ratioP2;P2;SDS_P1;SDS_P2;PMS_P1;PMS_P2;Temp;Humidity;BMP_temperature;BMP_pressure;BME280_temperature;BME280_humidity;BME280_pressure;Samples;Min_cycle;Max_cycle;Signal;HPM_P1;HPM_P2
2023/06/26 03:00:41;;;;;;;5.78;3.78;;;26.60;41.40;;;;;;6095152;23;45904;31
2023/06/26 03:03:07;;;;;;;9.00;3.88;;;26.60;41.40;;;;;;4892595;28;47326;-56
2023/06/26 03:05:33;;;;;;;4.43;3.95;;;26.60;41.30;;;;;;4908271;28;47216;-54
2023/06/26 03:07:58;;;;;;;6.70;4.22;;;26.60;41.20;;;;;;4902793;28;45281;-55
2023/06/26 03:10:24;;;;;;;4.68;4.28;;;26.60;41.20;;;;;;4888788;28;45465;-58
2023/06/26 03:12:49;;;;;;;6.72;4.25;;;26.60;41.30;;;;;;4907220;28;45558;-56
2023/06/26 03:15:15;;;;;;;5.47;4.32;;;26.60;41.30;;;;;;4872369;28;46508;-57
2023/06/26 03:17:40;;;;;;;4.90;4.22;;;26.50;41.30;;;;;;4902456;28;45638;-53
2023/06/26 03:20:07;;;;;;;6.15;4.10;;;26.50;41.40;;;;;;4905496;28;45362;-59
2023/06/26 03:22:33;;;;;;;5.50;4.55;;;26.50;41.40;;;;;;4885119;28;45487;-57
2023/06/26 03:24:59;;;;;;;6.03;4.10;;;26.50;41.40;;;;;;4909697;28;45450;-56
2023/06/26 03:27:25;;;;;;;5.30;4.30;;;26.50;41.30;;;;;;4903859;28;45632;-55
2023/06/26 03:29:52;;;;;;;4.90;4.13;;;26.50;41.30;;;;;;4908137;28;45640;-55
2023/06/26 03:32:17;;;;;;;5.63;4.53;;;26.50;41.30;;;;;;4897599;28;46040;-56
2023/06/26 03:34:43;;;;;;;5.07;4.50;;;26.50;41.40;;;;;;4905363;28;46150;-56
2023/06/26 03:37:08;;;;;;;5.22;4.07;;;26.50;41.50;;;;;;4896927;28;47416;-57
2023/06/26 03:39:34;;;;;;;5.15;3.83;;;26.40;41.40;;;;;;4913979;28;45821;-57
2023/06/26 03:42:00;;;;;;;8.05;4.82;;;26.40;41.40;;;;;;4900181;28;45194;-55
2023/06/26 03:44:27;;;;;;;4.38;3.97;;;26.40;41.50;;;;;;4914535;28;46328;-57
2023/06/26 03:46:52;;;;;;;5.03;4.53;;;26.40;41.50;;;;;;4904807;28;45741;-57
2023/06/26 03:49:18;;;;;;;5.28;4.32;;;26.40;41.60;;;;;;4915970;28;44963;-57
2023/06/26 03:51:44;;;;;;;5.10;4.35;;;26.40;41.60;;;;;;4903548;28;45594;-56
2023/06/26 03:54:10;;;;;;;4.57;4.18;;;26.40;41.60;;;;;;4916019;28;46269;-56
2023/06/26 03:56:35;;;;;;;7.60;4.63;;;26.40;41.60;;;;;;4895921;28;45195;-56
2023/06/26 03:59:01;;;;;;;6.13;4.68;;;26.40;41.60;;;;;;4918730;28;45471;-55
2023/06/26 04:01:27;;;;;;;5.85;4.80;;;26.40;41.60;;;;;;4889288;28;46036;-57
2023/06/26 04:03:53;;;;;;;5.47;4.55;;;26.40;41.70;;;;;;4916692;28;45248;-57
2023/06/26 04:06:18;;;;;;;5.15;4.55;;;26.40;41.70;;;;;;4911663;28;44744;-56
2023/06/26 04:08:44;;;;;;;5.90;4.60;;;26.40;41.80;;;;;;4921832;28;45513;-57
2023/06/26 04:11:09;;;;;;;4.93;4.43;;;26.30;41.80;;;;;;4914987;28;45329;-54
2023/06/26 04:13:35;;;;;;;4.82;4.18;;;26.30;41.80;;;;;;4901757;28;46648;-56
2023/06/26 04:16:01;;;;;;;6.47;4.65;;;26.30;41.90;;;;;;4906422;28;45773;-56
2023/06/26 04:18:27;;;;;;;5.55;4.28;;;26.30;42.00;;;;;;4912098;28;45280;-55
2023/06/26 04:21:12;;;;;;;7.72;4.70;;;26.30;42.00;;;;;;4911006;28;45178;-56
2023/06/26 04:23:38;;;;;;;5.15;4.65;;;26.30;42.40;;;;;;4916932;28;45540;-57
2023/06/26 04:26:04;;;;;;;6.20;4.68;;;26.30;42.20;;;;;;4914511;28;45079;-56
2023/06/26 04:28:32;;;;;;;6.13;4.57;;;26.30;42.30;;;;;;4900364;28;45200;-56
2023/06/26 04:30:57;;;;;;;5.50;4.55;;;26.30;42.30;;;;;;4911214;28;45497;-56
2023/06/26 04:33:23;;;;;;;4.78;4.22;;;26.30;42.30;;;;;;4930722;28;46198;-58
2023/06/26 04:35:49;;;;;;;5.07;4.38;;;26.30;42.40;;;;;;4913339;28;45572;-55
2023/06/26 04:38:15;;;;;;;6.68;4.88;;;26.30;42.40;;;;;;4887055;28;45293;-53
2023/06/26 04:40:41;;;;;;;7.20;4.70;;;26.30;42.50;;;;;;4903634;28;46479;-57
2023/06/26 04:43:06;;;;;;;5.88;4.30;;;26.30;42.50;;;;;;4916604;28;45658;-57
2023/06/26 04:45:32;;;;;;;6.25;4.72;;;26.20;42.50;;;;;;4908890;28;45304;-57
2023/06/26 04:47:57;;;;;;;6.07;4.45;;;26.20;42.70;;;;;;4914769;28;44965;-55
2023/06/26 04:50:23;;;;;;;6.97;5.13;;;26.20;42.70;;;;;;4918530;28;45712;-56
2023/06/26 04:52:48;;;;;;;8.23;4.65;;;26.20;42.90;;;;;;4906876;28;47147;-55
2023/06/26 04:55:14;;;;;;;7.93;5.60;;;26.20;42.90;;;;;;4906136;28;45312;-56
2023/06/26 04:57:39;;;;;;;7.07;5.22;;;26.20;43.00;;;;;;4914634;28;45295;-57
2023/06/26 05:00:09;;;;;;;7.93;5.78;;;26.20;43.00;;;;;;4917738;28;45259;-56
2023/06/26 05:02:35;;;;;;;6.32;5.38;;;26.20;43.30;;;;;;4893906;28;45138;-57
2023/06/26 05:05:01;;;;;;;5.93;5.05;;;26.20;43.30;;;;;;4914157;28;45596;-56
2023/06/26 05:07:26;;;;;;;7.63;5.80;;;26.10;43.40;;;;;;4877456;28;45861;-62
2023/06/26 05:09:52;;;;;;;6.47;5.00;;;26.10;43.40;;;;;;4915994;28;44977;-54
2023/06/26 05:12:17;;;;;;;7.15;5.47;;;26.10;43.50;;;;;;4912088;28;45470;-58
2023/06/26 05:14:43;;;;;;;6.43;5.63;;;26.10;43.70;;;;;;4904729;28;45218;-56
2023/06/26 05:17:09;;;;;;;6.18;5.20;;;26.10;44.00;;;;;;4912503;28;45201;-61
2023/06/26 05:19:34;;;;;;;6.45;5.75;;;26.10;43.80;;;;;;4919936;28;45646;-56
2023/06/26 05:22:03;;;;;;;5.78;5.18;;;26.10;43.90;;;;;;4927884;28;46210;-56
2023/06/26 05:24:29;;;;;;;6.45;5.38;;;26.20;43.90;;;;;;4920884;28;45689;-56
2023/06/26 05:26:55;;;;;;;6.57;5.57;;;26.20;43.80;;;;;;4901274;28;45189;-57
2023/06/26 05:29:21;;;;;;;8.40;5.78;;;26.20;43.80;;;;;;4917126;28;45304;-54
2023/06/26 05:31:46;;;;;;;5.53;4.95;;;26.20;43.70;;;;;;4909159;28;47858;-55
2023/06/26 05:34:12;;;;;;;5.32;4.47;;;26.20;43.70;;;;;;4913188;28;45045;-56
2023/06/26 05:36:37;;;;;;;7.25;5.38;;;26.20;43.60;;;;;;4892039;28;45657;-57
2023/06/26 05:39:03;;;;;;;6.30;5.50;;;26.20;43.60;;;;;;4900763;28;45555;-56
2023/06/26 05:41:29;;;;;;;7.78;5.20;;;26.20;43.60;;;;;;4912591;28;46281;-55
2023/06/26 05:43:54;;;;;;;6.55;5.22;;;26.20;43.50;;;;;;4913572;28;44971;-53
2023/06/26 05:46:20;;;;;;;6.55;5.43;;;26.20;43.50;;;;;;4886433;28;45057;-55
2023/06/26 05:48:47;;;;;;;9.02;5.07;;;26.30;43.40;;;;;;4915759;28;45262;-56
2023/06/26 05:51:13;;;;;;;6.65;5.47;;;26.30;43.30;;;;;;4907149;28;47263;-58
2023/06/26 05:53:38;;;;;;;8.02;4.80;;;26.30;43.20;;;;;;4920277;28;45512;-56
2023/06/26 05:56:04;;;;;;;6.95;5.30;;;26.30;43.00;;;;;;4910297;28;45154;-56
2023/06/26 05:58:30;;;;;;;5.70;5.05;;;26.30;42.80;;;;;;4918611;28;45065;-56
2023/06/26 06:00:55;;;;;;;6.55;5.10;;;26.30;42.70;;;;;;4906306;28;46388;-57
2023/06/26 06:03:21;;;;;;;7.10;5.50;;;26.30;42.70;;;;;;4893495;28;45420;-60
2023/06/26 06:05:47;;;;;;;6.93;5.90;;;26.30;42.60;;;;;;4897822;28;44944;-58
2023/06/26 06:08:12;;;;;;;8.30;5.43;;;26.30;42.40;;;;;;4917867;28;46266;-59
2023/06/26 06:10:38;;;;;;;7.38;5.35;;;26.40;42.30;;;;;;4878477;28;45525;-61
2023/06/26 06:13:03;;;;;;;7.85;4.95;;;26.40;42.20;;;;;;4905726;28;45587;-59
2023/06/26 06:15:29;;;;;;;5.70;4.95;;;26.40;42.20;;;;;;4896416;28;45174;-55
2023/06/26 06:17:54;;;;;;;6.82;5.03;;;26.50;42.20;;;;;;4895025;28;45325;-59
2023/06/26 06:20:20;;;;;;;6.03;4.90;;;26.50;42.10;;;;;;4893008;28;46981;-59
2023/06/26 06:22:48;;;;;;;6.85;5.03;;;26.60;42.00;;;;;;4894538;28;45381;-58
2023/06/26 06:25:14;;;;;;;6.60;4.78;;;26.60;42.00;;;;;;4899244;28;45761;-61
2023/06/26 06:27:39;;;;;;;6.13;5.18;;;26.70;41.80;;;;;;4901583;28;44872;-58
2023/06/26 06:30:05;;;;;;;7.55;4.65;;;26.70;41.70;;;;;;4904051;28;46049;-63
2023/06/26 06:32:31;;;;;;;6.25;4.38;;;26.80;41.80;;;;;;4876353;28;44988;-61
2023/06/26 06:34:57;;;;;;;6.00;4.72;;;26.90;41.70;;;;;;4908779;28;45575;-56
2023/06/26 06:37:22;;;;;;;6.60;5.32;;;26.90;41.60;;;;;;4894521;28;45452;-61
2023/06/26 06:39:48;;;;;;;5.70;5.10;;;27.00;41.50;;;;;;4896597;28;46135;-61
2023/06/26 06:42:13;;;;;;;5.63;4.95;;;27.10;41.40;;;;;;4896684;28;45765;-61
2023/06/26 06:44:39;;;;;;;5.88;5.10;;;27.10;41.30;;;;;;4916666;28;45741;-61
2023/06/26 06:47:04;;;;;;;6.07;5.05;;;27.20;41.30;;;;;;4890815;28;45076;-61
2023/06/26 06:49:30;;;;;;;7.10;5.13;;;27.30;41.30;;;;;;4898042;28;47405;-58
2023/06/26 06:51:56;;;;;;;5.35;4.80;;;27.30;41.10;;;;;;4899732;28;45731;-62
2023/06/26 06:54:21;;;;;;;5.68;4.85;;;27.40;41.10;;;;;;4883141;28;45566;-61
2023/06/26 06:56:47;;;;;;;10.52;4.93;;;27.40;41.00;;;;;;4895922;28;45411;-61
2023/06/26 06:59:12;;;;;;;5.88;5.10;;;27.50;41.00;;;;;;4901292;28;46165;-58
2023/06/26 07:01:39;;;;;;;8.38;5.50;;;27.60;40.90;;;;;;4888401;28;45260;-61
2023/06/26 07:04:05;;;;;;;6.43;5.20;;;27.60;40.80;;;;;;4904205;28;46290;-60
2023/06/26 07:06:30;;;;;;;5.75;4.93;;;27.60;40.60;;;;;;4892786;28;45263;-60
2023/06/26 07:08:56;;;;;;;5.38;4.63;;;27.70;40.70;;;;;;4903888;28;46133;-60
2023/06/26 07:11:21;;;;;;;8.18;4.78;;;27.70;40.60;;;;;;4897501;28;45354;-61
2023/06/26 07:13:47;;;;;;;5.50;4.95;;;27.70;40.50;;;;;;4903725;28;45542;-60
2023/06/26 07:16:14;;;;;;;9.43;4.70;;;27.80;40.40;;;;;;4899068;28;45772;-60
2023/06/26 07:18:40;;;;;;;7.93;5.18;;;27.80;40.50;;;;;;4897772;28;45274;-59
2023/06/26 07:21:05;;;;;;;7.15;4.90;;;27.80;40.40;;;;;;4894094;28;45224;-60
2023/06/26 07:23:31;;;;;;;7.07;5.28;;;27.90;41.10;;;;;;4914110;28;45027;-61
2023/06/26 07:25:56;;;;;;;7.15;4.53;;;27.90;40.40;;;;;;4893958;28;45069;-61
2023/06/26 07:28:22;;;;;;;7.38;4.70;;;28.00;40.40;;;;;;4899567;28;45147;-59
2023/06/26 07:30:48;;;;;;;5.90;4.85;;;28.00;40.40;;;;;;4896490;28;45296;-61
2023/06/26 07:33:14;;;;;;;6.53;4.78;;;28.10;40.40;;;;;;4899610;28;45509;-61
2023/06/26 07:35:39;;;;;;;5.60;4.93;;;28.10;40.40;;;;;;4896011;28;45580;-63
2023/06/26 07:38:05;;;;;;;7.15;5.35;;;28.20;40.40;;;;;;4889731;28;45919;-57
2023/06/26 07:40:30;;;;;;;5.47;4.97;;;28.20;40.30;;;;;;4892679;28;44628;-60
2023/06/26 07:42:58;;;;;;;5.43;4.78;;;28.20;40.30;;;;;;4900295;28;46010;-60
2023/06/26 07:45:23;;;;;;;5.72;4.72;;;28.30;40.30;;;;;;4887923;28;45313;-60
2023/06/26 07:47:49;;;;;;;6.35;5.45;;;28.30;40.20;;;;;;4878035;28;46772;-57
2023/06/26 07:50:19;;;;;;;8.15;4.70;;;28.30;40.20;;;;;;4877453;29;45288;-59
2023/06/26 07:52:45;;;;;;;5.80;5.20;;;28.40;40.20;;;;;;4900796;28;45441;-60
2023/06/26 07:55:10;;;;;;;5.53;4.80;;;28.40;40.10;;;;;;4894761;28;45183;-66
2023/06/26 07:57:36;;;;;;;5.45;4.68;;;28.50;40.20;;;;;;4894934;28;46775;-62
2023/06/26 08:00:02;;;;;;;5.32;4.82;;;28.50;40.10;;;;;;4893708;28;45376;-61
2023/06/26 08:02:27;;;;;;;7.32;5.50;;;28.60;39.60;;;;;;4873407;28;45373;-63
2023/06/26 08:04:53;;;;;;;5.72;4.68;;;28.60;39.60;;;;;;4894982;28;45050;-61
2023/06/26 08:07:18;;;;;;;5.30;4.80;;;28.60;39.70;;;;;;4881245;28;45851;-60
2023/06/26 08:09:44;;;;;;;5.70;5.20;;;28.70;39.60;;;;;;4898515;28;45497;-60
2023/06/26 08:12:09;;;;;;;5.63;5.10;;;28.70;39.50;;;;;;4900070;28;45519;-62
2023/06/26 08:14:35;;;;;;;5.47;4.85;;;28.70;39.40;;;;;;4898692;28;45116;-59
2023/06/26 08:17:01;;;;;;;5.68;5.00;;;28.80;39.30;;;;;;4892453;28;45858;-60
2023/06/26 08:19:27;;;;;;;6.20;5.03;;;28.80;39.30;;;;;;4901982;28;45003;-61
2023/06/26 08:21:52;;;;;;;5.75;5.15;;;28.90;39.10;;;;;;4890763;28;45247;-60
2023/06/26 08:24:18;;;;;;;5.88;5.07;;;28.90;38.50;;;;;;4903227;28;44746;-60
2023/06/26 08:26:46;;;;;;;5.40;4.70;;;28.90;38.80;;;;;;4894194;28;46008;-59
2023/06/26 08:29:11;;;;;;;5.43;4.82;;;29.00;38.80;;;;;;4887100;28;45539;-60
2023/06/26 08:31:37;;;;;;;4.78;4.28;;;29.00;38.50;;;;;;4890598;28;45680;-60
2023/06/26 08:34:03;;;;;;;5.30;4.80;;;29.00;38.20;;;;;;4903054;28;45505;-59
2023/06/26 08:36:28;;;;;;;5.43;4.45;;;29.10;38.20;;;;;;4897833;28;46286;-60
2023/06/26 08:38:54;;;;;;;5.57;4.50;;;29.10;38.20;;;;;;4900156;28;45821;-62
2023/06/26 08:41:20;;;;;;;5.03;4.43;;;29.10;38.10;;;;;;4902423;28;45717;-61
2023/06/26 08:43:45;;;;;;;5.32;4.82;;;29.20;38.20;;;;;;4899368;28;45427;-60
2023/06/26 08:46:11;;;;;;;5.72;4.90;;;29.20;38.10;;;;;;4892680;28;45431;-60
2023/06/26 08:48:36;;;;;;;4.88;4.30;;;29.20;37.90;;;;;;4901315;28;45229;-60
2023/06/26 08:51:08;;;;;;;5.32;4.82;;;29.30;38.10;;;;;;4894700;28;45625;-60
2023/06/26 08:53:47;;;;;;;5.78;5.18;;;29.30;38.00;;;;;;4879805;28;45260;-59
2023/06/26 08:56:12;;;;;;;5.93;5.00;;;29.40;38.00;;;;;;4889153;28;47293;-60
2023/06/26 08:58:38;;;;;;;5.53;4.32;;;29.40;38.20;;;;;;4881982;28;45300;-57
2023/06/26 09:01:04;;;;;;;6.47;5.00;;;29.40;38.20;;;;;;4874356;28;45543;-58
2023/06/26 09:03:30;;;;;;;5.72;4.97;;;29.40;38.20;;;;;;4912138;28;45492;-60
2023/06/26 09:05:56;;;;;;;5.68;4.38;;;29.40;38.20;;;;;;4908938;28;45056;-59
2023/06/26 09:08:21;;;;;;;5.38;4.88;;;29.50;38.30;;;;;;4922069;28;45253;-58
2023/06/26 09:10:47;;;;;;;5.80;5.20;;;29.50;38.30;;;;;;4914923;28;45381;-59
2023/06/26 09:13:12;;;;;;;5.47;4.93;;;29.50;38.40;;;;;;4929418;28;46237;-59
2023/06/26 09:15:41;;;;;;;5.18;4.68;;;29.50;39.10;;;;;;4918762;28;45731;-59
2023/06/26 09:18:07;;;;;;;6.82;4.93;;;29.50;38.50;;;;;;4914624;28;45628;-60
2023/06/26 09:20:33;;;;;;;5.15;4.65;;;29.50;38.50;;;;;;4916073;28;45438;-59
2023/06/26 09:22:59;;;;;;;5.72;5.13;;;29.60;38.60;;;;;;4915565;28;45548;-60
2023/06/26 09:25:24;;;;;;;5.32;4.82;;;29.60;38.60;;;;;;4908973;28;45473;-60
2023/06/26 09:27:50;;;;;;;5.07;4.40;;;29.60;39.20;;;;;;4919859;28;44990;-59
2023/06/26 09:30:19;;;;;;;6.05;4.85;;;29.70;38.70;;;;;;4887177;28;45217;-61
2023/06/26 09:32:45;;;;;;;6.20;4.53;;;29.70;38.60;;;;;;4911767;28;45372;-60
2023/06/26 09:35:10;;;;;;;5.18;4.60;;;29.70;38.70;;;;;;4913832;28;46532;-59
2023/06/26 09:37:36;;;;;;;5.35;4.78;;;29.70;38.70;;;;;;4915127;28;45585;-61
2023/06/26 09:40:02;;;;;;;5.05;4.55;;;29.70;38.70;;;;;;4927806;28;45612;-61
2023/06/26 09:42:28;;;;;;;6.60;5.50;;;29.70;38.70;;;;;;4910834;28;45495;-62
2023/06/26 09:44:55;;;;;;;5.18;4.60;;;29.80;38.80;;;;;;4911448;28;46213;-58
2023/06/26 09:47:20;;;;;;;5.60;4.25;;;29.80;38.80;;;;;;4904920;28;45411;-58
2023/06/26 09:49:46;;;;;;;5.57;4.90;;;29.80;38.90;;;;;;4918931;28;45323;-60
2023/06/26 09:52:17;;;;;;;6.18;4.88;;;29.80;38.90;;;;;;4914203;28;45222;-59
2023/06/26 09:54:44;;;;;;;7.13;4.53;;;29.80;38.90;;;;;;4919929;28;45004;-59
2023/06/26 09:57:15;;;;;;;5.15;4.65;;;29.80;38.80;;;;;;4912221;28;45327;-62
2023/06/26 09:59:41;;;;;;;4.80;4.30;;;29.90;38.90;;;;;;4915132;28;45289;-59
2023/06/26 10:02:07;;;;;;;6.53;4.70;;;29.90;38.90;;;;;;4906455;28;45158;-61
2023/06/26 10:04:33;;;;;;;5.93;4.85;;;29.90;39.00;;;;;;4910756;28;46063;-60
2023/06/26 10:07:00;;;;;;;5.80;4.78;;;29.90;38.90;;;;;;4906615;28;45395;-61
2023/06/26 10:09:26;;;;;;;5.68;4.85;;;30.00;39.00;;;;;;4919174;28;44982;-60
2023/06/26 10:11:56;;;;;;;4.90;4.40;;;30.00;39.10;;;;;;4906002;28;45333;-58
2023/06/26 10:14:22;;;;;;;6.55;4.50;;;30.00;39.10;;;;;;4924788;28;46566;-61
2023/06/26 10:16:48;;;;;;;9.35;4.95;;;30.00;39.10;;;;;;4919769;28;45353;-60
2023/06/26 10:19:14;;;;;;;6.80;4.63;;;30.00;39.10;;;;;;4931367;28;45586;-62
2023/06/26 10:21:40;;;;;;;6.22;5.63;;;30.00;39.10;;;;;;4877395;28;45368;-59
2023/06/26 10:24:06;;;;;;;6.30;5.63;;;29.60;38.70;;;;;;4903376;28;46760;-59
2023/06/26 10:26:32;;;;;;;10.27;5.47;;;29.30;38.30;;;;;;4916531;28;46059;-56
2023/06/26 10:28:57;;;;;;;9.70;5.68;;;29.00;38.10;;;;;;4907534;28;45388;-58
2023/06/26 10:31:26;;;;;;;5.88;5.28;;;28.80;37.90;;;;;;4908140;28;45201;-57
2023/06/26 10:33:51;;;;;;;6.05;5.45;;;28.70;37.30;;;;;;4902490;28;45590;-59
2023/06/26 10:36:19;;;;;;;7.05;6.03;;;28.50;36.80;;;;;;4895609;28;45303;-59
2023/06/26 10:39:11;;;;;;;6.20;5.60;;;28.40;36.30;;;;;;4917133;28;45354;-58
2023/06/26 10:41:38;;;;;;;6.18;5.47;;;28.20;35.10;;;;;;4909745;28;45038;-60
2023/06/26 10:44:16;;;;;;;5.85;5.18;;;28.00;35.20;;;;;;4917878;28;45535;-60
2023/06/26 10:46:55;;;;;;;6.95;6.05;;;27.90;34.50;;;;;;4890467;28;45465;-59
2023/06/26 10:49:25;;;;;;;5.25;4.75;;;27.80;33.20;;;;;;4896691;28;45390;-57
2023/06/26 10:51:51;;;;;;;6.13;4.90;;;27.60;33.90;;;;;;4895112;28;45912;-57
2023/06/26 10:54:19;;;;;;;7.22;5.57;;;27.60;34.00;;;;;;4904045;28;46583;-56
2023/06/26 10:56:46;;;;;;;8.32;5.38;;;27.60;33.10;;;;;;4923223;28;45628;-57
2023/06/26 10:59:19;;;;;;;9.90;5.43;;;27.50;33.20;;;;;;4917676;28;45793;-57
2023/06/26 11:01:46;;;;;;;6.50;4.70;;;27.40;32.70;;;;;;4916805;28;45272;-55
2023/06/26 11:04:14;;;;;;;5.88;4.57;;;27.40;33.10;;;;;;4918730;28;45896;-56
2023/06/26 11:06:40;;;;;;;5.88;5.00;;;27.40;32.60;;;;;;4916767;28;45553;-56
2023/06/26 11:09:07;;;;;;;6.28;5.68;;;27.30;32.60;;;;;;4915014;28;45444;-56
2023/06/26 11:11:51;;;;;;;6.95;5.55;;;27.20;32.40;;;;;;4918145;28;45893;-58
2023/06/26 11:14:17;;;;;;;6.10;5.20;;;27.30;30.80;;;;;;4924152;28;45126;-57
2023/06/26 11:16:42;;;;;;;6.13;5.22;;;27.20;32.30;;;;;;4891368;28;46103;-55
2023/06/26 11:19:12;;;;;;;7.28;5.22;;;27.10;32.10;;;;;;4918399;28;45299;-56
2023/06/26 11:21:38;;;;;;;6.00;4.97;;;27.10;31.70;;;;;;4891043;28;45422;-56
2023/06/26 11:24:07;;;;;;;6.18;4.95;;;27.00;31.70;;;;;;4895851;28;45487;-56
2023/06/26 11:26:38;;;;;;;5.18;4.45;;;26.90;31.40;;;;;;4912503;28;45274;-57
2023/06/26 11:29:03;;;;;;;8.23;4.90;;;26.90;31.50;;;;;;4914453;28;44929;-56
2023/06/26 11:31:30;;;;;;;5.10;4.60;;;26.80;32.50;;;;;;4871076;28;45297;-56
2023/06/26 11:33:56;;;;;;;5.50;4.82;;;26.80;32.80;;;;;;4919592;28;46142;-58
2023/06/26 11:36:28;;;;;;;5.25;4.30;;;26.80;33.20;;;;;;4928799;28;45381;-57
2023/06/26 11:39:01;;;;;;;6.05;4.43;;;26.80;33.40;;;;;;4907236;28;45172;-57
2023/06/26 11:41:28;;;;;;;5.63;4.70;;;26.70;33.80;;;;;;4911482;28;45241;-57
2023/06/26 11:43:54;;;;;;;5.10;4.55;;;26.70;34.30;;;;;;4918211;28;45469;-57
2023/06/26 11:46:20;;;;;;;7.03;4.93;;;26.70;34.70;;;;;;4912058;28;45476;-56
2023/06/26 11:48:45;;;;;;;5.57;4.97;;;26.70;35.00;;;;;;4896236;28;45402;-57
2023/06/26 11:51:14;;;;;;;5.57;4.97;;;26.70;35.30;;;;;;4913590;28;45537;-55
2023/06/26 11:53:43;;;;;;;6.20;4.75;;;26.70;35.70;;;;;;4913961;28;45686;-57
2023/06/26 11:56:10;;;;;;;5.65;4.35;;;26.70;35.80;;;;;;4914758;28;45706;-57
2023/06/26 11:58:36;;;;;;;5.43;4.50;;;26.80;36.10;;;;;;4884287;28;45189;-59
2023/06/26 12:01:02;;;;;;;6.28;5.13;;;26.80;36.30;;;;;;4889653;28;45087;-57
2023/06/26 12:03:29;;;;;;;6.10;4.82;;;26.80;36.50;;;;;;4910999;28;46018;-58
2023/06/26 12:05:55;;;;;;;4.53;4.13;;;26.80;36.80;;;;;;4890965;28;45563;-58
2023/06/26 12:08:20;;;;;;;4.75;4.28;;;26.80;36.90;;;;;;4911738;28;45440;-58
2023/06/26 12:10:46;;;;;;;5.30;4.75;;;26.80;37.20;;;;;;4899798;28;45656;-57
2023/06/26 12:13:11;;;;;;;6.10;4.57;;;26.80;37.30;;;;;;4917653;28;45973;-58
2023/06/26 12:15:37;;;;;;;5.30;4.43;;;26.80;37.50;;;;;;4902574;28;45400;-57
2023/06/26 12:18:08;;;;;;;4.82;4.30;;;26.80;37.70;;;;;;4893488;28;45210;-58
2023/06/26 12:20:34;;;;;;;5.00;4.28;;;26.80;38.00;;;;;;4924759;28;45460;-57
2023/06/26 12:22:59;;;;;;;5.35;4.32;;;26.80;38.00;;;;;;4915360;28;45560;-57
2023/06/26 12:25:25;;;;;;;6.15;4.72;;;26.80;38.00;;;;;;4912058;28;45550;-58
2023/06/26 12:27:50;;;;;;;6.65;4.50;;;26.70;38.20;;;;;;4913832;28;45199;-58
2023/06/26 12:30:16;;;;;;;4.97;4.43;;;26.70;38.20;;;;;;4907519;28;45384;-59
2023/06/26 12:32:45;;;;;;;5.05;4.40;;;26.70;38.40;;;;;;4908743;28;45946;-57
2023/06/26 12:35:11;;;;;;;4.32;3.90;;;26.70;38.70;;;;;;4905575;28;45415;-57
2023/06/26 12:37:40;;;;;;;4.85;4.03;;;26.60;38.70;;;;;;4909137;28;45404;-58
2023/06/26 12:40:17;;;;;;;5.40;4.40;;;26.60;38.60;;;;;;4913113;28;45279;-58
2023/06/26 12:42:43;;;;;;;4.85;3.50;;;26.70;39.00;;;;;;4913982;28;46545;-58
2023/06/26 12:45:15;;;;;;;4.45;4.05;;;26.70;38.70;;;;;;4911210;28;45475;-58
2023/06/26 12:47:43;;;;;;;4.90;3.87;;;26.70;39.00;;;;;;4925631;28;45308;-57
2023/06/26 12:50:09;;;;;;;4.80;4.18;;;26.70;39.00;;;;;;4915049;28;45237;-59
2023/06/26 12:52:34;;;;;;;5.13;4.60;;;26.70;39.00;;;;;;4912564;28;45943;-57
2023/06/26 12:55:00;;;;;;;6.45;4.40;;;26.70;39.20;;;;;;4914624;28;45262;-54
2023/06/26 12:57:26;;;;;;;4.85;4.18;;;26.70;39.30;;;;;;4910604;28;45440;-58
2023/06/26 12:59:52;;;;;;;4.60;4.07;;;26.70;39.40;;;;;;4920182;28;45852;-56
2023/06/26 13:02:17;;;;;;;5.95;4.07;;;26.70;39.50;;;;;;4908191;28;47063;-56
2023/06/26 13:04:44;;;;;;;4.43;3.90;;;26.70;39.60;;;;;;4918311;28;45571;-56
2023/06/26 13:07:10;;;;;;;4.97;4.28;;;26.70;39.70;;;;;;4918767;28;45328;-56
2023/06/26 13:09:36;;;;;;;4.68;4.15;;;26.70;39.90;;;;;;4890367;28;45063;-58
2023/06/26 13:12:03;;;;;;;4.93;4.18;;;26.70;39.90;;;;;;4930563;28;46185;-57
2023/06/26 13:14:29;;;;;;;4.05;3.58;;;26.70;40.00;;;;;;4919779;28;44726;-57
2023/06/26 13:16:55;;;;;;;4.47;4.07;;;26.70;40.10;;;;;;4909401;28;46245;-56
2023/06/26 13:19:20;;;;;;;5.00;4.13;;;26.70;40.20;;;;;;4917605;28;45409;-56
2023/06/26 13:21:46;;;;;;;4.72;4.25;;;26.70;40.20;;;;;;4911617;28;46161;-55
2023/06/26 13:24:12;;;;;;;4.88;4.38;;;26.70;40.20;;;;;;4918376;28;45706;-57
2023/06/26 13:26:38;;;;;;;4.85;4.28;;;26.70;40.30;;;;;;4910940;28;45399;-57
2023/06/26 13:29:04;;;;;;;4.88;4.35;;;26.80;40.40;;;;;;4913951;28;45077;-57
2023/06/26 13:31:29;;;;;;;4.97;4.40;;;26.70;40.50;;;;;;4962392;23;45823;-57
2023/06/26 13:33:57;;;;;;;4.72;4.30;;;26.60;40.60;;;;;;4951120;28;45595;-58
2023/06/26 13:36:23;;;;;;;4.72;4.25;;;26.60;40.70;;;;;;4977990;28;45393;-56
2023/06/26 13:38:55;;;;;;;4.57;3.95;;;26.60;40.80;;;;;;4979008;28;45027;-57
2023/06/26 13:41:21;;;;;;;5.68;4.45;;;26.60;40.80;;;;;;4961047;28;45790;-56
2023/06/26 13:43:47;;;;;;;5.47;4.47;;;26.60;40.90;;;;;;4953085;28;44726;-58
2023/06/26 13:46:12;;;;;;;4.57;4.15;;;26.50;41.70;;;;;;4978900;28;45245;-57
2023/06/26 13:48:38;;;;;;;4.03;3.63;;;26.50;41.40;;;;;;4968095;28;45322;-55
2023/06/26 13:51:03;;;;;;;4.40;3.90;;;26.50;41.30;;;;;;4962383;28;46393;-58
2023/06/26 13:53:29;;;;;;;4.70;4.20;;;26.50;41.40;;;;;;4986693;28;45292;-57
2023/06/26 13:55:54;;;;;;;4.97;3.97;;;26.50;41.30;;;;;;4981835;28;45234;-58
2023/06/26 13:58:22;;;;;;;4.50;4.10;;;26.50;41.40;;;;;;4988650;28;45260;-57
2023/06/26 14:00:47;;;;;;;4.93;4.43;;;26.50;41.50;;;;;;4974476;28;45184;-59
2023/06/26 14:03:13;;;;;;;6.68;4.13;;;26.50;41.50;;;;;;4984935;28;45470;-58
2023/06/26 14:05:40;;;;;;;4.88;4.15;;;26.50;41.60;;;;;;4979795;28;45314;-57
2023/06/26 14:08:07;;;;;;;5.75;3.80;;;26.50;41.60;;;;;;4984921;28;45480;-56
2023/06/26 14:10:33;;;;;;;4.38;3.80;;;26.50;41.60;;;;;;4963611;28;45537;-57
2023/06/26 14:12:59;;;;;;;5.32;4.82;;;26.50;41.90;;;;;;4970304;28;45794;-56
2023/06/26 14:15:25;;;;;;;4.57;4.10;;;26.40;41.90;;;;;;4961809;28;45448;-56
2023/06/26 14:17:51;;;;;;;5.38;4.30;;;26.50;42.00;;;;;;4965202;28;45300;-56
2023/06/26 14:20:17;;;;;;;4.45;4.05;;;26.50;42.00;;;;;;4979726;28;45580;-58
2023/06/26 14:22:43;;;;;;;4.20;3.80;;;26.50;42.10;;;;;;4985074;28;45357;-57
2023/06/26 14:25:09;;;;;;;4.35;3.72;;;26.50;42.20;;;;;;4982118;28;45332;-58
2023/06/26 14:27:35;;;;;;;5.60;4.10;;;26.50;42.20;;;;;;4978256;28;45586;-58
2023/06/26 14:30:02;;;;;;;4.15;3.75;;;26.50;42.20;;;;;;4978432;28;46602;-56
2023/06/26 14:32:29;;;;;;;5.18;4.47;;;26.50;42.20;;;;;;4946522;28;45510;-57
2023/06/26 14:34:55;;;;;;;4.68;4.18;;;26.50;42.30;;;;;;4983411;28;44801;-56
2023/06/26 14:37:20;;;;;;;5.13;3.78;;;26.40;42.30;;;;;;4981035;28;44923;-56
2023/06/26 14:39:46;;;;;;;4.35;3.85;;;26.40;42.40;;;;;;4981237;28;45352;-56
2023/06/26 14:42:11;;;;;;;4.13;3.72;;;26.40;42.40;;;;;;4982887;28;45283;-56
2023/06/26 14:44:37;;;;;;;4.75;3.83;;;26.30;42.50;;;;;;5006751;28;45470;-54
2023/06/26 14:47:02;;;;;;;4.15;3.65;;;26.30;42.50;;;;;;4994907;28;45516;-54
2023/06/26 14:49:28;;;;;;;4.60;4.15;;;26.30;42.50;;;;;;5004668;28;45239;-57
2023/06/26 14:51:54;;;;;;;4.95;4.45;;;26.30;42.60;;;;;;4998028;28;45164;-57
2023/06/26 14:54:19;;;;;;;5.88;3.83;;;26.20;42.80;;;;;;5005393;28;45282;-56
2023/06/26 14:56:45;;;;;;;6.32;4.22;;;26.20;43.00;;;;;;4982049;28;45423;-55
2023/06/26 14:59:12;;;;;;;4.63;3.72;;;26.30;43.10;;;;;;4979944;28;46669;-59
2023/06/26 15:01:38;;;;;;;4.78;4.03;;;26.30;43.00;;;;;;4979517;28;45645;-56
2023/06/26 15:04:04;;;;;;;4.22;3.80;;;26.30;43.10;;;;;;4988942;28;45367;-55
2023/06/26 15:06:30;;;;;;;3.78;3.47;;;26.30;43.10;;;;;;4998099;28;45465;-58
2023/06/26 15:08:55;;;;;;;4.82;3.38;;;26.30;43.00;;;;;;5001250;28;46306;-55
2023/06/26 15:11:21;;;;;;;5.18;3.88;;;26.50;42.80;;;;;;4987436;28;45455;-55
2023/06/26 15:13:46;;;;;;;4.30;3.90;;;26.60;42.60;;;;;;5007231;28;45494;-57
2023/06/26 15:16:12;;;;;;;4.38;3.42;;;26.70;42.30;;;;;;4997542;28;45138;-57
2023/06/26 15:18:37;;;;;;;4.13;3.72;;;26.80;42.20;;;;;;5002523;28;45844;-58
2023/06/26 15:21:03;;;;;;;3.58;3.28;;;26.90;42.20;;;;;;4996232;28;45617;-56
2023/06/26 15:23:29;;;;;;;3.95;3.55;;;26.90;41.90;;;;;;5005717;28;44970;-56
2023/06/26 15:25:55;;;;;;;4.18;3.47;;;27.00;42.00;;;;;;5000188;28;45239;-55
2023/06/26 15:28:21;;;;;;;3.90;3.20;;;27.00;41.90;;;;;;4998233;28;46036;-58
2023/06/26 15:30:47;;;;;;;4.07;3.30;;;27.10;41.80;;;;;;4976577;28;46378;-56
2023/06/26 15:33:12;;;;;;;3.45;3.03;;;27.10;41.80;;;;;;5005159;28;45240;-55
2023/06/26 15:35:38;;;;;;;4.07;3.40;;;27.20;41.70;;;;;;5000668;28;45047;-56
2023/06/26 15:38:03;;;;;;;4.30;3.80;;;27.20;41.70;;;;;;5001700;28;46644;-58
2023/06/26 15:40:29;;;;;;;3.63;3.33;;;27.20;41.60;;;;;;4994391;28;45211;-56
2023/06/26 15:42:54;;;;;;;4.00;3.25;;;27.30;41.60;;;;;;5004669;28;45459;-58